createdAt,value
2019-05-18T00:01:34.190Z,97078.75
2019-05-18T00:03:35.795Z,97078.02
2019-05-18T00:05:37.412Z,97075.53
2019-05-18T00:07:39.012Z,97081.91
2019-05-18T00:09:40.647Z,97074.10
2019-05-18T00:11:42.245Z,97073.56
2019-05-18T00:13:43.857Z,97074.30
2019-05-18T00:15:45.512Z,97078.37
2019-05-18T00:17:47.145Z,97069.33
2019-05-18T00:19:48.759Z,97065.87
2019-05-18T00:21:50.367Z,97075.83
2019-05-18T00:23:51.976Z,97077.02
2019-05-18T00:25:53.578Z,97071.94
2019-05-18T00:27:55.219Z,97079.98
2019-05-18T00:29:56.819Z,97073.95
2019-05-18T00:31:58.426Z,97071.34
2019-05-18T00:34:00.032Z,97075.16
2019-05-18T00:36:01.631Z,97064.61
2019-05-18T00:38:03.228Z,97068.28
2019-05-18T00:40:04.833Z,97060.64
2019-05-18T00:42:06.446Z,97072.66
2019-05-18T00:44:08.081Z,97064.21
2019-05-18T00:46:09.678Z,97063.70
2019-05-18T00:48:11.293Z,97061.94
2019-05-18T00:50:12.931Z,97056.69
2019-05-18T00:52:14.530Z,97056.11
2019-05-18T00:54:16.136Z,97052.24
2019-05-18T00:56:17.724Z,97062.83
2019-05-18T00:58:19.331Z,97059.48
2019-05-18T01:00:20.976Z,97054.05
2019-05-18T01:02:22.581Z,97062.25
2019-05-18T01:04:24.234Z,97058.97
2019-05-18T01:06:25.834Z,97066.77
2019-05-18T01:08:27.444Z,97063.04
2019-05-18T01:10:29.088Z,97063.56
2019-05-18T01:12:30.686Z,97055.05
2019-05-18T01:14:32.526Z,97062.20
2019-05-18T01:16:34.122Z,97063.41
2019-05-18T01:18:35.715Z,97056.13
2019-05-18T01:20:37.335Z,97059.58
2019-05-18T01:22:38.971Z,97055.53
2019-05-18T01:24:40.580Z,97053.30
2019-05-18T01:26:42.175Z,97063.41
2019-05-18T01:28:43.793Z,97055.65
2019-05-18T01:30:45.393Z,97055.28
2019-05-18T01:32:46.990Z,97058.72
2019-05-18T01:34:48.584Z,97059.23
2019-05-18T01:36:50.193Z,97062.31
2019-05-18T01:38:51.803Z,97055.09
2019-05-18T01:40:53.418Z,97052.45
2019-05-18T01:42:55.005Z,97044.31
2019-05-18T01:44:56.658Z,97046.80
2019-05-18T01:46:58.880Z,97043.10
2019-05-18T01:49:00.468Z,97045.30
2019-05-18T01:51:02.065Z,97042.66
2019-05-18T01:53:04.312Z,97051.97
2019-05-18T01:55:05.932Z,97047.20
2019-05-18T01:57:07.538Z,97048.76
2019-05-18T01:59:09.175Z,97047.42
2019-05-18T02:01:10.770Z,97053.03
2019-05-18T02:03:12.370Z,97049.20
2019-05-18T02:05:14.018Z,97051.20
2019-05-18T02:07:15.613Z,97049.55
2019-05-18T02:09:17.215Z,97053.18
2019-05-18T02:11:18.830Z,97054.75
2019-05-18T02:13:20.444Z,97049.06
2019-05-18T02:15:22.087Z,97050.23
2019-05-18T02:17:23.671Z,97043.27
2019-05-18T02:19:25.279Z,97047.59
2019-05-18T02:21:26.882Z,97050.38
2019-05-18T02:23:28.483Z,97050.73
2019-05-18T02:25:30.068Z,97051.08
2019-05-18T02:27:31.713Z,97051.86
2019-05-18T02:29:33.343Z,97056.95
2019-05-18T02:31:34.930Z,97049.61
2019-05-18T02:33:36.543Z,97046.62
2019-05-18T02:35:38.128Z,97047.28
2019-05-18T02:37:39.745Z,97047.59
2019-05-18T02:39:41.390Z,97001.06
2019-05-18T02:41:43.001Z,97047.61
2019-05-18T02:43:44.602Z,97042.06
2019-05-18T02:45:46.242Z,97039.77
2019-05-18T02:47:47.861Z,97044.08
2019-05-18T02:49:49.493Z,97038.44
2019-05-18T02:51:51.089Z,97038.13
2019-05-18T02:53:52.709Z,97039.02
2019-05-18T02:55:54.312Z,97038.17
2019-05-18T02:57:55.922Z,97033.97
2019-05-18T02:59:57.550Z,97034.36
2019-05-18T03:01:59.169Z,97038.09
2019-05-18T03:04:00.757Z,97041.93
2019-05-18T03:06:02.383Z,97040.29
2019-05-18T03:08:03.992Z,97046.16
2019-05-18T03:10:05.595Z,97038.91
2019-05-18T03:12:07.242Z,97040.12
2019-05-18T03:14:08.850Z,97041.00
2019-05-18T03:16:10.454Z,97040.53
2019-05-18T03:18:12.074Z,97038.84
2019-05-18T03:20:13.723Z,97038.05
2019-05-18T03:22:15.321Z,97038.00
2019-05-18T03:24:17.080Z,97035.84
2019-05-18T03:26:18.606Z,97045.34
2019-05-18T03:28:20.207Z,97042.42
2019-05-18T03:30:21.891Z,97046.28
2019-05-18T03:32:23.466Z,97046.70
2019-05-18T03:34:25.085Z,97041.47
2019-05-18T03:36:26.691Z,97038.95
2019-05-18T03:38:28.293Z,97036.83
2019-05-18T03:40:29.921Z,97040.32
2019-05-18T03:42:31.522Z,97047.97
2019-05-18T03:44:33.154Z,97052.56
2019-05-18T03:46:34.775Z,97054.72
2019-05-18T03:48:36.375Z,97054.06
2019-05-18T03:50:37.974Z,97051.05
2019-05-18T03:52:39.561Z,97051.83
2019-05-18T03:54:41.215Z,97057.75
2019-05-18T03:56:42.835Z,97065.33
2019-05-18T03:58:44.429Z,97057.75
2019-05-18T04:00:46.022Z,97060.63
2019-05-18T04:02:47.616Z,97055.89
2019-05-18T04:04:49.267Z,97051.22
2019-05-18T04:06:50.896Z,97044.34
2019-05-18T04:08:52.493Z,97046.82
2019-05-18T04:10:54.116Z,97045.08
2019-05-18T04:12:55.713Z,97044.44
2019-05-18T04:14:57.326Z,97012.10
2019-05-18T04:16:58.973Z,97054.05
2019-05-18T04:19:00.592Z,97046.75
2019-05-18T04:21:02.181Z,97047.88
2019-05-18T04:23:03.804Z,97047.44
2019-05-18T04:25:05.421Z,97049.57
2019-05-18T04:27:07.058Z,97055.19
2019-05-18T04:29:08.653Z,97047.06
2019-05-18T04:31:10.252Z,97049.42
2019-05-18T04:33:11.850Z,97051.17
2019-05-18T04:35:13.487Z,97049.11
2019-05-18T04:37:15.083Z,97051.37
2019-05-18T04:39:16.697Z,97044.85
2019-05-18T04:41:18.298Z,97037.96
2019-05-18T04:43:19.901Z,97049.45
2019-05-18T04:45:21.502Z,97050.93
2019-05-18T04:47:23.140Z,97047.55
2019-05-18T04:49:24.760Z,97041.24
2019-05-18T04:51:26.365Z,97043.36
2019-05-18T04:53:27.976Z,97043.41
2019-05-18T04:55:29.566Z,97038.78
2019-05-18T04:57:31.161Z,97037.50
2019-05-18T04:59:32.759Z,97033.25
2019-05-18T05:01:34.355Z,97035.14
2019-05-18T05:03:35.996Z,97045.69
2019-05-18T05:05:37.588Z,97032.46
2019-05-18T05:07:39.195Z,97031.65
2019-05-18T05:09:40.830Z,97032.69
2019-05-18T05:11:42.436Z,97023.66
2019-05-18T05:13:44.056Z,97025.35
2019-05-18T05:15:45.677Z,97023.89
2019-05-18T05:17:47.295Z,97022.07
2019-05-18T05:19:48.926Z,97013.00
2019-05-18T05:21:50.538Z,97020.96
2019-05-18T05:23:52.170Z,97019.03
2019-05-18T05:25:53.775Z,97013.39
2019-05-18T05:27:55.373Z,97014.94
2019-05-18T05:29:57.011Z,97016.64
2019-05-18T05:31:58.616Z,97016.89
2019-05-18T05:34:00.256Z,97019.77
2019-05-18T05:36:01.881Z,97020.34
2019-05-18T05:38:03.505Z,97021.45
2019-05-18T05:40:05.119Z,97026.84
2019-05-18T05:42:06.781Z,97031.33
2019-05-18T05:44:08.410Z,97026.42
2019-05-18T05:46:10.005Z,97020.47
2019-05-18T05:48:11.598Z,97031.11
2019-05-18T05:50:13.278Z,97035.44
2019-05-18T05:52:14.896Z,97033.94
2019-05-18T05:54:16.526Z,97031.50
2019-05-18T05:56:18.145Z,97031.92
2019-05-18T05:58:19.742Z,97038.86
2019-05-18T06:00:21.335Z,97034.63
2019-05-18T06:02:22.933Z,97028.40
2019-05-18T06:04:24.613Z,97031.57
2019-05-18T06:06:26.214Z,97040.66
2019-05-18T06:08:27.821Z,97035.64
2019-05-18T06:10:29.438Z,97033.27
2019-05-18T06:12:31.028Z,97001.09
2019-05-18T06:14:32.648Z,97043.09
2019-05-18T06:16:34.269Z,97038.61
2019-05-18T06:18:35.893Z,97040.14
2019-05-18T06:20:50.442Z,97038.91
2019-05-18T06:22:39.144Z,97032.55
2019-05-18T06:24:40.756Z,97040.20
2019-05-18T06:26:42.363Z,97036.28
2019-05-18T06:28:43.962Z,97050.34
2019-05-18T06:30:45.581Z,97048.95
2019-05-18T06:32:47.192Z,97056.81
2019-05-18T06:34:48.832Z,97051.70
2019-05-18T06:36:50.428Z,97053.64
2019-05-18T06:38:52.045Z,97044.05
2019-05-18T06:40:53.647Z,97048.41
2019-05-18T06:42:55.280Z,97045.44
2019-05-18T06:44:56.910Z,97052.55
2019-05-18T06:46:58.552Z,97046.36
2019-05-18T06:49:00.137Z,97044.53
2019-05-18T06:51:07.347Z,97042.61
2019-05-18T06:53:03.490Z,97049.03
2019-05-18T06:55:05.089Z,97047.41
2019-05-18T06:57:06.727Z,97045.06
2019-05-18T06:59:08.340Z,97046.33
2019-05-18T07:01:09.938Z,96761.38
2019-05-18T07:03:11.544Z,97052.72
2019-05-18T07:05:13.132Z,97058.30
2019-05-18T07:07:14.766Z,97058.75
2019-05-18T07:09:16.362Z,97059.28
2019-05-18T07:11:18.676Z,97054.22
2019-05-18T07:13:20.268Z,97052.13
2019-05-18T07:15:21.882Z,97055.76
2019-05-18T07:17:23.509Z,97056.94
2019-05-18T07:19:25.120Z,97060.05
2019-05-18T07:21:26.718Z,97065.34
2019-05-18T07:23:28.324Z,97059.16
2019-05-18T07:25:29.932Z,97060.33
2019-05-18T07:27:31.541Z,97057.66
2019-05-18T07:29:33.135Z,97056.18
2019-05-18T07:31:34.730Z,97061.95
2019-05-18T07:33:36.325Z,97059.91
2019-05-18T07:35:37.964Z,97057.27
2019-05-18T07:37:39.570Z,97062.12
2019-05-18T07:39:41.212Z,97062.79
2019-05-18T07:41:46.792Z,97058.94
2019-05-18T07:43:44.527Z,97055.98
2019-05-18T07:45:46.122Z,97053.55
2019-05-18T07:47:47.728Z,97043.91
2019-05-18T07:49:49.410Z,97042.55
2019-05-18T07:51:51.028Z,97041.03
2019-05-18T07:53:52.673Z,97035.75
2019-05-18T07:55:54.326Z,97039.09
2019-05-18T07:57:55.910Z,97034.38
2019-05-18T07:59:57.510Z,97034.22
2019-05-18T08:01:59.120Z,97034.44
2019-05-18T08:04:00.705Z,97026.64
2019-05-18T08:06:02.344Z,97032.20
2019-05-18T08:08:03.941Z,97036.25
2019-05-18T08:10:05.541Z,97029.31
2019-05-18T08:12:07.133Z,97027.57
2019-05-18T08:14:08.769Z,97029.61
2019-05-18T08:16:10.380Z,97032.05
2019-05-18T08:18:12.032Z,97051.69
2019-05-18T08:20:13.653Z,97046.13
2019-05-18T08:22:15.250Z,97047.88
2019-05-18T08:24:16.900Z,97054.49
2019-05-18T08:26:18.485Z,97042.66
2019-05-18T08:28:20.078Z,97040.67
2019-05-18T08:30:21.738Z,97041.18
2019-05-18T08:32:23.340Z,97042.65
2019-05-18T08:34:24.934Z,97034.25
2019-05-18T08:36:26.577Z,97043.66
2019-05-18T08:38:28.178Z,97029.67
2019-05-18T08:40:29.809Z,97037.08
2019-05-18T08:42:31.427Z,97040.30
2019-05-18T08:44:33.050Z,97034.43
2019-05-18T08:46:34.657Z,97027.94
2019-05-18T08:48:36.268Z,97039.74
2019-05-18T08:50:37.852Z,97038.56
2019-05-18T08:52:39.455Z,97046.45
2019-05-18T08:54:41.072Z,97044.05
2019-05-18T08:56:42.707Z,97046.27
2019-05-18T08:58:44.325Z,97053.54
2019-05-18T09:00:45.944Z,97058.13
2019-05-18T09:02:47.542Z,97058.11
2019-05-18T09:04:49.135Z,97058.55
2019-05-18T09:06:50.762Z,97064.33
2019-05-18T09:08:52.376Z,97047.80
2019-05-18T09:10:54.020Z,97065.16
2019-05-18T09:12:55.634Z,97056.91
2019-05-18T09:14:57.237Z,97060.90
2019-05-18T09:16:58.874Z,97057.03
2019-05-18T09:19:00.460Z,97055.54
2019-05-18T09:21:02.160Z,97064.58
2019-05-18T09:23:03.776Z,97060.69
2019-05-18T09:25:05.392Z,97066.29
2019-05-18T09:27:07.039Z,97061.44
2019-05-18T09:29:08.667Z,97051.17
2019-05-18T09:31:10.279Z,97054.28
2019-05-18T09:33:11.924Z,97050.28
2019-05-18T09:35:13.531Z,97058.94
2019-05-18T09:37:15.152Z,97057.59
2019-05-18T09:39:16.798Z,97053.23
2019-05-18T09:41:18.394Z,97054.52
2019-05-18T09:43:20.035Z,97057.91
2019-05-18T09:45:21.644Z,97057.63
2019-05-18T09:47:23.284Z,97052.20
2019-05-18T09:49:24.920Z,97043.81
2019-05-18T09:51:26.531Z,97047.72
2019-05-18T09:53:30.084Z,97044.80
2019-05-18T09:55:29.785Z,97050.75
2019-05-18T09:57:31.390Z,97043.16
2019-05-18T09:59:33.006Z,97049.66
2019-05-18T10:01:34.639Z,97052.27
2019-05-18T10:03:36.260Z,97044.25
2019-05-18T10:05:37.898Z,97042.16
2019-05-18T10:07:39.503Z,97037.56
2019-05-18T10:09:41.133Z,97043.16
2019-05-18T10:11:42.781Z,97040.22
2019-05-18T10:13:44.391Z,97036.80
2019-05-18T10:15:46.008Z,97032.47
2019-05-18T10:17:47.602Z,97037.05
2019-05-18T10:19:49.243Z,97034.47
2019-05-18T10:21:50.870Z,97036.19
2019-05-18T10:23:52.466Z,97027.64
2019-05-18T10:25:54.101Z,97025.10
2019-05-18T10:27:55.705Z,97019.33
2019-05-18T10:29:57.337Z,97014.63
2019-05-18T10:31:58.955Z,97014.14
2019-05-18T10:34:00.539Z,97010.31
2019-05-18T10:36:02.158Z,97019.13
2019-05-18T10:38:03.740Z,97017.83
2019-05-18T10:40:05.389Z,97015.16
2019-05-18T10:42:06.985Z,97012.38
2019-05-18T10:44:08.568Z,97015.72
2019-05-18T10:46:10.199Z,97014.95
2019-05-18T10:48:11.807Z,97018.64
2019-05-18T10:50:13.494Z,97025.80
2019-05-18T10:52:15.078Z,97017.41
2019-05-18T10:54:16.684Z,97021.77
2019-05-18T10:56:18.313Z,97014.09
2019-05-18T10:58:19.910Z,97007.75
2019-05-18T11:00:21.507Z,97011.20
2019-05-18T11:02:23.115Z,97011.24
2019-05-18T11:04:24.734Z,97009.20
2019-05-18T11:06:26.347Z,97000.72
2019-05-18T11:08:27.982Z,97011.00
2019-05-18T11:10:29.577Z,96997.01
2019-05-18T11:12:31.194Z,96999.20
2019-05-18T11:14:32.789Z,96991.58
2019-05-18T11:16:34.426Z,96997.09
2019-05-18T11:18:36.035Z,96988.48
2019-05-18T11:20:37.652Z,96994.73
2019-05-18T11:22:39.259Z,96993.79
2019-05-18T11:24:40.857Z,96986.94
2019-05-18T11:26:42.462Z,96988.51
2019-05-18T11:28:44.099Z,96985.85
2019-05-18T11:30:45.709Z,96988.63
2019-05-18T11:32:47.302Z,96999.27
2019-05-18T11:34:48.895Z,96989.51
2019-05-18T11:36:50.610Z,96984.94
2019-05-18T11:38:52.245Z,96981.63
2019-05-18T11:40:53.841Z,96965.14
2019-05-18T11:42:55.452Z,96985.64
2019-05-18T11:44:57.054Z,96978.02
2019-05-18T11:46:58.646Z,96975.04
2019-05-18T11:49:00.318Z,96981.06
2019-05-18T11:51:01.914Z,96981.11
2019-05-18T11:53:03.540Z,96976.50
2019-05-18T11:55:05.137Z,96982.48
2019-05-18T11:57:06.765Z,96977.45
2019-05-18T11:59:08.398Z,96977.89
2019-05-18T12:01:10.011Z,96947.59
2019-05-18T12:03:11.613Z,96974.50
2019-05-18T12:05:13.215Z,96981.41
2019-05-18T12:07:14.819Z,96978.14
2019-05-18T12:09:16.473Z,96976.78
2019-05-18T12:11:18.092Z,96969.63
2019-05-18T12:13:22.334Z,96961.55
2019-05-18T12:15:21.363Z,96967.52
2019-05-18T12:17:22.953Z,96968.80
2019-05-18T12:19:24.554Z,96966.30
2019-05-18T12:21:26.197Z,96965.05
2019-05-18T12:23:27.798Z,96962.17
2019-05-18T12:25:29.394Z,96971.02
2019-05-18T12:27:31.002Z,96966.76
2019-05-18T12:29:33.265Z,96963.86
2019-05-18T12:31:34.880Z,96964.72
2019-05-18T12:33:36.500Z,96957.50
2019-05-18T12:35:38.098Z,96955.78
2019-05-18T12:37:39.688Z,96955.38
2019-05-18T12:39:41.282Z,96959.30
2019-05-18T12:41:42.874Z,96957.18
2019-05-18T12:43:44.484Z,96954.63
2019-05-18T12:45:46.115Z,96949.95
2019-05-18T12:47:47.715Z,96946.56
2019-05-18T12:49:49.350Z,96943.20
2019-05-18T12:51:50.980Z,96947.48
2019-05-18T12:53:52.578Z,96942.81
2019-05-18T12:55:54.212Z,96950.49
2019-05-18T12:57:55.842Z,96948.44
2019-05-18T12:59:57.434Z,96945.09
2019-05-18T13:01:59.194Z,96946.36
2019-05-18T13:04:00.795Z,96946.44
2019-05-18T13:06:02.412Z,96935.06
2019-05-18T13:08:04.052Z,96929.86
2019-05-18T13:10:05.749Z,96934.55
2019-05-18T13:12:07.342Z,96941.43
2019-05-18T13:14:08.941Z,96897.84
2019-05-18T13:16:10.583Z,96933.81
2019-05-18T13:18:12.259Z,96940.69
2019-05-18T13:20:13.862Z,96931.80
2019-05-18T13:22:15.453Z,96932.29
2019-05-18T13:24:17.059Z,96934.01
2019-05-18T13:26:18.658Z,96941.67
2019-05-18T13:28:20.285Z,96940.00
2019-05-18T13:30:21.879Z,96937.52
2019-05-18T13:32:23.522Z,96929.86
2019-05-18T13:34:25.143Z,96927.05
2019-05-18T13:36:26.744Z,96934.02
2019-05-18T13:38:28.356Z,96926.67
2019-05-18T13:40:29.954Z,96918.08
2019-05-18T13:42:31.555Z,96921.33
2019-05-18T13:44:33.202Z,96925.11
2019-05-18T13:46:34.816Z,96925.60
2019-05-18T13:48:36.424Z,96928.52
2019-05-18T13:50:38.057Z,96923.09
2019-05-18T13:52:39.667Z,96927.81
2019-05-18T13:54:41.325Z,96930.11
2019-05-18T13:56:42.936Z,96918.18
2019-05-18T13:58:44.538Z,96916.06
2019-05-18T14:00:46.166Z,96917.84
2019-05-18T14:02:47.904Z,96922.66
2019-05-18T14:04:49.498Z,96926.66
2019-05-18T14:06:51.108Z,96914.98
2019-05-18T14:08:52.766Z,96919.34
2019-05-18T14:10:54.362Z,96920.30
2019-05-18T14:12:56.054Z,96918.28
2019-05-18T14:14:57.693Z,96920.48
2019-05-18T14:16:59.308Z,96925.67
2019-05-18T14:19:00.965Z,96911.27
2019-05-18T14:21:02.620Z,96912.19
2019-05-18T14:23:04.221Z,96904.13
2019-05-18T14:25:18.341Z,96910.48
2019-05-18T14:27:07.500Z,96906.27
2019-05-18T14:29:09.094Z,96905.04
2019-05-18T14:31:10.730Z,96900.81
2019-05-18T14:33:12.492Z,96903.88
2019-05-18T14:35:14.128Z,96863.16
2019-05-18T14:37:15.740Z,96904.02
2019-05-18T14:39:17.356Z,96905.80
2019-05-18T14:41:18.954Z,96915.78
2019-05-18T14:43:20.573Z,96909.84
2019-05-18T14:45:22.194Z,96900.53
2019-05-18T14:47:27.169Z,96898.91
2019-05-18T14:49:25.455Z,96898.14
2019-05-18T14:51:27.055Z,96895.20
2019-05-18T14:53:28.673Z,96893.55
2019-05-18T14:55:33.783Z,96897.49
2019-05-18T14:57:31.927Z,96897.86
2019-05-18T14:59:33.514Z,96891.98
2019-05-18T15:01:35.129Z,96886.05
2019-05-18T15:03:36.791Z,96889.95
2019-05-18T15:05:38.891Z,96881.99
2019-05-18T15:07:40.112Z,96888.72
2019-05-18T15:09:41.700Z,96890.48
2019-05-18T15:11:43.340Z,96863.38
2019-05-18T15:13:44.945Z,96889.73
2019-05-18T15:15:46.545Z,96881.31
2019-05-18T15:17:48.184Z,96882.61
2019-05-18T15:19:49.778Z,96878.86
2019-05-18T15:21:51.378Z,96884.02
2019-05-18T15:23:52.986Z,96885.80
2019-05-18T15:25:54.582Z,96888.02
2019-05-18T15:27:56.197Z,96882.49
2019-05-18T15:29:57.844Z,96889.33
2019-05-18T15:31:59.457Z,96884.28
2019-05-18T15:34:01.119Z,96887.72
2019-05-18T15:36:02.774Z,96892.04
2019-05-18T15:38:05.039Z,96884.90
2019-05-18T15:40:06.667Z,96890.03
2019-05-18T15:42:08.252Z,96879.39
2019-05-18T15:44:09.889Z,96881.98
2019-05-18T15:46:11.482Z,96892.66
2019-05-18T15:48:13.118Z,96884.19
2019-05-18T15:50:14.751Z,96885.06
2019-05-18T15:52:16.344Z,96883.46
2019-05-18T15:54:18.000Z,96873.31
2019-05-18T15:56:19.606Z,96877.98
2019-05-18T15:58:21.197Z,96877.98
2019-05-18T16:00:22.835Z,96868.31
2019-05-18T16:02:24.424Z,96876.81
2019-05-18T16:04:26.071Z,96876.89
2019-05-18T16:06:27.660Z,96871.83
2019-05-18T16:08:29.262Z,96875.32
2019-05-18T16:10:30.920Z,96872.75
2019-05-18T16:12:32.518Z,96867.67
2019-05-18T16:14:34.115Z,96869.44
2019-05-18T16:16:35.727Z,96880.91
2019-05-18T16:18:37.330Z,96876.69
2019-05-18T16:20:38.961Z,96877.98
2019-05-18T16:22:44.269Z,96875.52
2019-05-18T16:24:42.710Z,96877.23
2019-05-18T16:26:44.315Z,96870.48
2019-05-18T16:28:45.914Z,96867.54
2019-05-18T16:30:47.519Z,96869.72
2019-05-18T16:32:49.165Z,96868.45
2019-05-18T16:34:50.775Z,96874.86
2019-05-18T16:36:52.402Z,96870.25
2019-05-18T16:38:53.995Z,96864.33
2019-05-18T16:40:55.603Z,96868.59
2019-05-18T16:42:57.336Z,96866.53
2019-05-18T16:44:58.952Z,96867.83
2019-05-18T16:47:00.592Z,96866.20
2019-05-18T16:49:02.198Z,96870.02
2019-05-18T16:51:03.786Z,96873.47
2019-05-18T16:53:05.439Z,96878.61
2019-05-18T16:55:07.047Z,96867.58
2019-05-18T16:57:08.636Z,96871.44
2019-05-18T16:59:10.244Z,96871.49
2019-05-18T17:01:11.855Z,96871.09
2019-05-18T17:03:13.484Z,96871.11
2019-05-18T17:05:15.101Z,96863.09
2019-05-18T17:07:16.712Z,96864.39
2019-05-18T17:09:18.311Z,96868.23
2019-05-18T17:11:19.892Z,96869.50
2019-05-18T17:13:21.509Z,96869.58
2019-05-18T17:15:23.106Z,96866.19
2019-05-18T17:17:24.731Z,96866.19
2019-05-18T17:19:26.350Z,96867.97
2019-05-18T17:21:27.945Z,96869.26
2019-05-18T17:23:29.557Z,96868.42
2019-05-18T17:25:31.160Z,96865.04
2019-05-18T17:27:32.785Z,96873.53
2019-05-18T17:29:34.396Z,96873.59
2019-05-18T17:31:35.991Z,96863.48
2019-05-18T17:33:37.652Z,96869.45
2019-05-18T17:35:39.281Z,96863.95
2019-05-18T17:37:40.892Z,96868.63
2019-05-18T17:39:42.487Z,96869.91
2019-05-18T17:41:44.084Z,96868.28
2019-05-18T17:43:45.698Z,96875.51
2019-05-18T17:45:47.293Z,96867.08
2019-05-18T17:47:48.893Z,96874.32
2019-05-18T17:49:50.499Z,96870.14
2019-05-18T17:51:52.096Z,96870.56
2019-05-18T17:53:53.680Z,96876.53
2019-05-18T17:55:55.292Z,96872.71
2019-05-18T17:57:56.893Z,96873.59
2019-05-18T17:59:58.495Z,96872.38
2019-05-18T18:02:00.108Z,96877.91
2019-05-18T18:04:01.714Z,96873.30
2019-05-18T18:06:03.360Z,96869.06
2019-05-18T18:08:04.981Z,96831.72
2019-05-18T18:10:06.598Z,96880.27
2019-05-18T18:12:08.207Z,96876.91
2019-05-18T18:14:09.817Z,96888.39
2019-05-18T18:16:11.464Z,96883.50
2019-05-18T18:18:13.080Z,96884.23
2019-05-18T18:20:14.678Z,96859.67
2019-05-18T18:22:16.310Z,96882.38
2019-05-18T18:24:17.965Z,96887.17
2019-05-18T18:26:19.593Z,96883.41
2019-05-18T18:28:21.199Z,96887.48
2019-05-18T18:30:22.845Z,96888.91
2019-05-18T18:32:24.505Z,96889.41
2019-05-18T18:34:26.146Z,96892.86
2019-05-18T18:36:27.741Z,96892.40
2019-05-18T18:38:29.344Z,96889.57
2019-05-18T18:40:30.951Z,96891.58
2019-05-18T18:42:32.599Z,96894.63
2019-05-18T18:44:34.215Z,96905.27
2019-05-18T18:46:35.829Z,96897.83
2019-05-18T18:48:37.557Z,96899.10
2019-05-18T18:50:39.148Z,96896.81
2019-05-18T18:52:41.556Z,96907.28
2019-05-18T18:54:43.158Z,96911.38
2019-05-18T18:56:44.746Z,96900.45
2019-05-18T18:58:46.347Z,96904.52
2019-05-18T19:00:48.011Z,96908.83
2019-05-18T19:02:49.646Z,96915.23
2019-05-18T19:04:51.247Z,96913.30
2019-05-18T19:06:53.286Z,96922.92
2019-05-18T19:08:54.889Z,96921.20
2019-05-18T19:10:56.480Z,96924.41
2019-05-18T19:12:58.554Z,96925.78
2019-05-18T19:15:00.154Z,96930.57
2019-05-18T19:17:01.746Z,96939.83
2019-05-18T19:19:03.474Z,96938.87
2019-05-18T19:21:05.042Z,96943.09
2019-05-18T19:23:07.139Z,96946.48
2019-05-18T19:25:08.752Z,96944.37
2019-05-18T19:27:10.479Z,96947.59
2019-05-18T19:29:12.094Z,96929.58
2019-05-18T19:31:13.735Z,96954.31
2019-05-18T19:33:16.145Z,96952.20
2019-05-18T19:35:17.900Z,96948.39
2019-05-18T19:37:19.497Z,96951.16
2019-05-18T19:39:21.148Z,96948.95
2019-05-18T19:41:24.125Z,96951.66
2019-05-18T19:43:26.876Z,96958.15
2019-05-18T19:45:28.520Z,96956.47
2019-05-18T19:47:30.167Z,96959.64
2019-05-18T19:49:31.872Z,96957.52
2019-05-18T19:51:33.476Z,96919.67
2019-05-18T19:53:35.063Z,96956.48
2019-05-18T19:55:36.717Z,96960.48
2019-05-18T19:57:38.311Z,96955.00
2019-05-18T19:59:39.913Z,96954.64
2019-05-18T20:01:41.512Z,96953.34
2019-05-18T20:03:43.108Z,96959.11
2019-05-18T20:05:44.707Z,96949.02
2019-05-18T20:07:46.338Z,96954.48
2019-05-18T20:09:47.943Z,96954.94
2019-05-18T20:11:49.542Z,96954.71
2019-05-18T20:13:51.138Z,96955.68
2019-05-18T20:15:52.770Z,96954.62
2019-05-18T20:17:55.002Z,96954.20
2019-05-18T20:19:56.624Z,96949.94
2019-05-18T20:21:58.297Z,96944.17
2019-05-18T20:23:59.884Z,96947.59
2019-05-18T20:26:01.480Z,96948.09
2019-05-18T20:28:03.099Z,96936.45
2019-05-18T20:30:04.704Z,96936.55
2019-05-18T20:32:06.717Z,96933.47
2019-05-18T20:34:08.319Z,96939.27
2019-05-18T20:36:09.910Z,96938.84
2019-05-18T20:38:11.561Z,96937.55
2019-05-18T20:40:13.172Z,96929.06
2019-05-18T20:42:14.882Z,96936.66
2019-05-18T20:44:16.497Z,96929.50
2019-05-18T20:46:18.101Z,96929.06
2019-05-18T20:48:19.697Z,96936.73
2019-05-18T20:50:21.289Z,96927.81
2019-05-18T20:52:22.886Z,96927.61
2019-05-18T20:54:24.481Z,96926.36
2019-05-18T20:56:26.083Z,96929.00
2019-05-18T20:58:39.441Z,96925.25
2019-05-18T21:00:29.335Z,96923.11
2019-05-18T21:02:30.945Z,96923.61
2019-05-18T21:04:32.586Z,96920.27
2019-05-18T21:06:34.181Z,96922.85
2019-05-18T21:08:35.778Z,96920.50
2019-05-18T21:10:37.374Z,96919.90
2019-05-18T21:12:38.982Z,96918.64
2019-05-18T21:14:40.593Z,96924.02
2019-05-18T21:16:42.188Z,96921.08
2019-05-18T21:18:43.797Z,96921.28
2019-05-18T21:20:45.406Z,96925.46
2019-05-18T21:22:47.006Z,96925.02
2019-05-18T21:24:48.625Z,96924.59
2019-05-18T21:26:50.266Z,96925.33
2019-05-18T21:28:56.529Z,96921.64
2019-05-18T21:30:53.542Z,96918.34
2019-05-18T21:32:55.160Z,96919.45
2019-05-18T21:34:56.748Z,96915.20
2019-05-18T21:36:58.363Z,96921.73
2019-05-18T21:38:59.984Z,96918.34
2019-05-18T21:41:01.583Z,96917.47
2019-05-18T21:43:03.213Z,96914.70
2019-05-18T21:45:04.856Z,96913.84
2019-05-18T21:47:06.462Z,96913.89
2019-05-18T21:49:08.107Z,96918.28
2019-05-18T21:51:09.716Z,96919.34
2019-05-18T21:53:11.304Z,96912.95
2019-05-18T21:55:12.944Z,96913.98
2019-05-18T21:57:14.538Z,96916.84
2019-05-18T21:59:16.147Z,96914.11
2019-05-18T22:01:17.812Z,96913.47
2019-05-18T22:03:19.421Z,96919.30
2019-05-18T22:05:21.008Z,96918.16
2019-05-18T22:07:22.632Z,96913.20
2019-05-18T22:09:24.254Z,96908.27
2019-05-18T22:11:25.873Z,96888.49
2019-05-18T22:13:27.466Z,96911.28
2019-05-18T22:15:29.059Z,96909.34
2019-05-18T22:17:30.690Z,96904.38
2019-05-18T22:19:32.286Z,96906.23
2019-05-18T22:21:33.877Z,96911.11
2019-05-18T22:23:35.492Z,96907.83
2019-05-18T22:25:37.092Z,96907.97
2019-05-18T22:27:38.746Z,96909.78
2019-05-18T22:29:40.342Z,96912.91
2019-05-18T22:31:41.984Z,96907.44
2019-05-18T22:33:43.583Z,96912.70
2019-05-18T22:35:45.188Z,96910.62
2019-05-18T22:37:46.823Z,96913.30
2019-05-18T22:39:48.436Z,96912.11
2019-05-18T22:41:50.065Z,96922.41
2019-05-18T22:43:51.671Z,96921.66
2019-05-18T22:45:53.266Z,96913.11
2019-05-18T22:47:54.903Z,96911.23
2019-05-18T22:49:56.488Z,96909.88
2019-05-18T22:51:58.109Z,96911.23
2019-05-18T22:53:59.715Z,96909.97
2019-05-18T22:56:01.315Z,96914.66
2019-05-18T22:58:02.943Z,96909.61
2019-05-18T23:00:04.555Z,96913.44
2019-05-18T23:02:06.187Z,96913.55
2019-05-18T23:04:07.790Z,96909.77
2019-05-18T23:06:09.383Z,96904.24
2019-05-18T23:08:10.987Z,96910.26
2019-05-18T23:10:12.581Z,96914.92
2019-05-18T23:12:14.232Z,96912.41
2019-05-18T23:14:15.832Z,96907.40
2019-05-18T23:16:17.457Z,96915.52
2019-05-18T23:18:19.131Z,96916.46
2019-05-18T23:20:20.711Z,96908.81
2019-05-18T23:22:22.309Z,96909.28
2019-05-18T23:24:23.988Z,96905.30
2019-05-18T23:26:25.595Z,96903.57
2019-05-18T23:28:27.204Z,96901.90
2019-05-18T23:30:28.804Z,96903.59
2019-05-18T23:32:30.484Z,96905.25
2019-05-18T23:34:32.131Z,96899.34
2019-05-18T23:36:33.716Z,96901.53
2019-05-18T23:38:35.325Z,96892.64
2019-05-18T23:40:36.935Z,96889.67
2019-05-18T23:42:39.153Z,96891.86
2019-05-18T23:44:40.792Z,96910.20
2019-05-18T23:46:42.394Z,96881.37
2019-05-18T23:48:43.979Z,96883.50